Flight Number: EUR2194 Duration: 1:15
Departure: Beograd/Belgrade (LYBE) at 21:15 Distance: 411 Nm
Arrival: Munich Int'l (EDDM) at 22:30 Equipment: B737

Weather Information
Beograd / Surcin, Serbia and Montenegro (LYBE) 44-49N 020-17E 99M Oct 19, 2018 - 01:30 PM EDT / 2018.10.19 1730 UTC
Wind: from the ENE (070 degrees) at 5 MPH (4 KT):0
Visibility: greater than 7 mile(s):0 Temperature: 62 F (17 C) Dew Point: 50 F (10 C) Relative Humidity: 63% Pressure (altimeter): 30.09 in. Hg (1019 hPa)
ob: LYBE 191730Z 07004KT CAVOK 17/10 Q1019 NOSIG cycle: 17
Sunrise: 05:03 Sunset: 15:43 (UTC)

Munchen, Germany (EDDM) 48-21N 011-47E Oct 19, 2018 - 01:50 PM EDT / 2018.10.19 1750 UTC
Wind: from the N (360 degrees) at 2 MPH (2 KT):0
Visibility: 5 mile(s):0 Temperature: 48 F (9 C) Dew Point: 46 F (8 C) Relative Humidity: 93% Pressure (altimeter): 30.21 in. Hg (1023 hPa)
ob: EDDM 191750Z 36002KT 9000 NSC 09/08 Q1023 NOSIG cycle: 18
Sunrise: 05:42 Sunset: 16:12 (UTC)

TAF:2018/10/19 18:44 TAF EDDM 191700Z 1918/2024 VRB02KT 8000 NSC BECMG 1921/1924 2000 BCFG PROB30 TEMPO 2001/2009 0700 FG BECMG 2009/2011 7000 BKN013 BECMG 2011/2013 34006KT SCT013 BECMG 2016/2018 VRB03KT PROB30 TEMPO 2022/2024 3000 BCFG

Previous Pireps for this route
Date Aircraft Flight time Fuel used Landing rate On time
2013-10-30B73701.248538-200Yes
2014-02-21B73701.4411407-291No
2016-01-18B73701.147400-302Yes
(pireps marked green are flown by you)

Route map